Time,TemperatureF,DewpointF,PressureIn,WindDirection,WindDirectionDegrees,WindSpeedMPH,WindSpeedGustMPH,Humidity,HourlyPrecipIn,Conditions,Clouds,dailyrainin,SoftwareType,DateUTC
2013-06-21 00:15:00,75.8,76.0,30.02,West,267,2.0,-999.0,100,-99.99,,,0.00,weatherlink.com 1.10,2013-06-21 04:15:00,
2013-06-21 00:59:00,75.4,75.0,30.00,West,267,0.0,-999.0,100,-99.99,,,0.00,weatherlink.com 1.10,2013-06-21 04:59:00,
2013-06-21 01:15:00,75.3,75.0,30.00,West,267,0.0,-999.0,100,-99.99,,,0.00,weatherlink.com 1.10,2013-06-21 05:15:00,
2013-06-21 01:30:00,75.8,76.0,29.99,SSE,158,0.0,-999.0,100,-99.99,,,0.00,weatherlink.com 1.10,2013-06-21 05:30:00,
2013-06-21 01:45:00,75.6,76.0,29.99,SSE,158,0.0,-999.0,100,-99.99,,,0.00,weatherlink.com 1.10,2013-06-21 05:45:00,
2013-06-21 02:15:00,75.3,75.0,29.99,SSE,158,0.0,-999.0,100,-99.99,,,0.00,weatherlink.com 1.10,2013-06-21 06:15:00,
2013-06-21 02:45:00,75.1,75.0,29.97,SSE,158,0.0,-999.0,100,-99.99,,,0.00,weatherlink.com 1.10,2013-06-21 06:45:00,
2013-06-21 03:00:00,75.8,76.0,29.97,SSE,158,0.0,-999.0,100,-99.99,,,0.00,weatherlink.com 1.10,2013-06-21 07:00:00,
2013-06-21 03:30:00,75.3,75.0,29.95,SSE,158,0.0,-999.0,100,-99.99,,,0.00,weatherlink.com 1.10,2013-06-21 07:30:00,
2013-06-21 03:59:00,76.0,76.0,29.95,SSE,158,0.0,-999.0,100,-99.99,,,0.00,weatherlink.com 1.10,2013-06-21 07:59:00,
2013-06-21 05:30:00,74.0,74.0,29.96,SSW,205,0.0,-999.0,100,-99.99,,,0.00,weatherlink.com 1.10,2013-06-21 09:30:00,
2013-06-21 05:45:00,73.9,74.0,29.96,SSW,205,0.0,-999.0,100,-99.99,,,0.00,weatherlink.com 1.10,2013-06-21 09:45:00,
2013-06-21 06:45:00,73.9,74.0,29.98,SSW,205,0.0,-999.0,100,-99.99,,,0.00,weatherlink.com 1.10,2013-06-21 10:45:00,
2013-06-21 07:00:00,73.7,74.0,29.98,SSW,205,0.0,-999.0,100,-99.99,,,0.00,weatherlink.com 1.10,2013-06-21 11:00:00,
2013-06-21 07:45:00,75.4,75.0,30.00,SSW,205,0.0,-999.0,100,-99.99,,,0.00,weatherlink.com 1.10,2013-06-21 11:45:00,
2013-06-21 08:30:00,79.2,79.0,30.01,SSW,205,0.0,-999.0,100,-99.99,,,0.00,weatherlink.com 1.10,2013-06-21 12:30:00,
2013-06-21 08:45:00,80.3,80.0,30.02,SSW,205,0.0,-999.0,100,-99.99,,,0.00,weatherlink.com 1.10,2013-06-21 12:45:00,
2013-06-21 09:00:00,81.6,82.0,30.02,East,99,2.0,-999.0,100,-99.99,,,0.00,weatherlink.com 1.10,2013-06-21 13:00:00,
2013-06-21 09:15:00,83.0,83.0,30.03,East,99,0.0,-999.0,100,-99.99,,,0.00,weatherlink.com 1.10,2013-06-21 13:15:00,
2013-06-21 09:31:00,83.4,83.0,30.02,East,99,0.0,-999.0,100,-99.99,,,0.00,weatherlink.com 1.10,2013-06-21 13:31:00,
2013-06-21 09:46:00,83.6,84.0,30.03,East,85,1.0,-999.0,100,-99.99,,,0.00,weatherlink.com 1.10,2013-06-21 13:46:00,
2013-06-21 10:01:00,83.8,84.0,30.03,ESE,108,0.0,-999.0,100,-99.99,,,0.00,weatherlink.com 1.10,2013-06-21 14:01:00,
2013-06-21 10:16:00,85.1,85.0,30.03,NE,53,2.0,-999.0,100,-99.99,,,0.00,weatherlink.com 1.10,2013-06-21 14:16:00,
2013-06-21 10:31:00,86.1,86.0,30.03,ENE,70,1.0,-999.0,100,-99.99,,,0.00,weatherlink.com 1.10,2013-06-21 14:31:00,
2013-06-21 10:46:00,87.0,87.0,30.03,ENE,70,1.0,-999.0,100,-99.99,,,0.00,weatherlink.com 1.10,2013-06-21 14:46:00,
2013-06-21 11:16:00,79.2,79.0,30.05,WSW,255,0.0,-999.0,100,-99.99,,,0.00,weatherlink.com 1.10,2013-06-21 15:16:00,
2013-06-21 11:46:00,76.5,77.0,30.04,SSW,196,0.0,-999.0,100,-99.99,,,0.00,weatherlink.com 1.10,2013-06-21 15:46:00,
2013-06-21 12:16:00,76.1,76.0,30.03,East,96,0.0,-999.0,100,-99.99,,,0.00,weatherlink.com 1.10,2013-06-21 16:16:00,
2013-06-21 12:31:00,76.3,76.0,30.03,SE,146,5.0,-999.0,100,-99.99,,,0.00,weatherlink.com 1.10,2013-06-21 16:31:00,
2013-06-21 12:45:00,76.7,77.0,30.03,ESE,122,2.0,-999.0,100,-99.99,,,0.00,weatherlink.com 1.10,2013-06-21 16:45:00,
2013-06-21 13:15:00,76.3,76.0,30.05,SSW,203,2.0,-999.0,100,-99.99,,,0.00,weatherlink.com 1.10,2013-06-21 17:15:00,
2013-06-21 13:30:00,76.0,76.0,30.05,WSW,239,5.0,-999.0,100,-99.99,,,0.00,weatherlink.com 1.10,2013-06-21 17:30:00,
2013-06-21 13:46:00,76.1,76.0,30.04,WSW,254,3.0,-999.0,100,-99.99,,,0.00,weatherlink.com 1.10,2013-06-21 17:46:00,
2013-06-21 14:01:00,76.3,76.0,30.03,WSW,250,3.0,-999.0,100,-99.99,,,0.00,weatherlink.com 1.10,2013-06-21 18:01:00,
2013-06-21 14:46:00,76.0,76.0,30.02,SW,224,0.0,-999.0,100,-99.99,,,0.00,weatherlink.com 1.10,2013-06-21 18:46:00,
2013-06-21 15:31:00,76.0,76.0,30.02,SW,229,1.0,-999.0,100,-99.99,,,0.00,weatherlink.com 1.10,2013-06-21 19:31:00,
2013-06-21 15:46:00,76.5,77.0,30.02,SW,229,0.0,-999.0,100,-99.99,,,0.00,weatherlink.com 1.10,2013-06-21 19:46:00,
2013-06-21 16:01:00,77.4,77.0,30.00,SW,218,0.0,-999.0,100,-99.99,,,0.00,weatherlink.com 1.10,2013-06-21 20:01:00,
2013-06-21 16:46:00,77.9,78.0,30.00,SW,231,0.0,-999.0,100,-99.99,,,0.00,weatherlink.com 1.10,2013-06-21 20:46:00,
2013-06-21 17:01:00,78.3,78.0,30.00,SE,135,1.0,-999.0,100,-99.99,,,0.00,weatherlink.com 1.10,2013-06-21 21:01:00,
2013-06-21 17:31:00,79.8,80.0,30.00,SSW,198,0.0,-999.0,100,-99.99,,,0.00,weatherlink.com 1.10,2013-06-21 21:31:00,
2013-06-21 17:46:00,80.5,81.0,30.01,SW,228,2.0,-999.0,100,-99.99,,,0.00,weatherlink.com 1.10,2013-06-21 21:46:00,
2013-06-21 18:01:00,79.8,80.0,30.01,SW,229,2.0,-999.0,100,-99.99,,,0.00,weatherlink.com 1.10,2013-06-21 22:01:00,
2013-06-21 18:16:00,80.3,80.0,30.00,SW,232,0.0,-999.0,100,-99.99,,,0.00,weatherlink.com 1.10,2013-06-21 22:16:00,
2013-06-21 18:30:00,80.9,81.0,30.01,SW,232,1.0,-999.0,100,-99.99,,,0.00,weatherlink.com 1.10,2013-06-21 22:30:00,
2013-06-21 18:46:00,81.2,81.0,30.00,SW,232,0.0,-999.0,100,-99.99,,,0.00,weatherlink.com 1.10,2013-06-21 22:46:00,
2013-06-21 19:00:00,81.4,81.0,30.01,SW,232,0.0,-999.0,100,-99.99,,,0.00,weatherlink.com 1.10,2013-06-21 23:00:00,
2013-06-21 19:16:00,81.2,81.0,30.01,SW,232,0.0,-999.0,100,-99.99,,,0.00,weatherlink.com 1.10,2013-06-21 23:16:00,
2013-06-21 19:31:00,80.1,80.0,30.01,SW,232,0.0,-999.0,100,-99.99,,,0.00,weatherlink.com 1.10,2013-06-21 23:31:00,
2013-06-21 20:01:00,78.1,78.0,30.01,SW,232,0.0,-999.0,100,-99.99,,,0.00,weatherlink.com 1.10,2013-06-22 00:01:00,
2013-06-21 20:31:00,77.0,77.0,30.00,SW,232,0.0,-999.0,100,-99.99,,,0.00,weatherlink.com 1.10,2013-06-22 00:31:00,
2013-06-21 21:16:00,76.1,76.0,30.01,SW,231,0.0,-999.0,100,-99.99,,,0.00,weatherlink.com 1.10,2013-06-22 01:16:00,
2013-06-21 21:31:00,76.0,76.0,30.02,SW,231,0.0,-999.0,100,-99.99,,,0.00,weatherlink.com 1.10,2013-06-22 01:31:00,
2013-06-21 22:01:00,75.6,76.0,30.03,SW,231,0.0,-999.0,100,-99.99,,,0.00,weatherlink.com 1.10,2013-06-22 02:01:00,
2013-06-21 22:16:00,75.6,76.0,30.03,SW,231,0.0,-999.0,100,-99.99,,,0.00,weatherlink.com 1.10,2013-06-22 02:16:00,
2013-06-21 23:01:00,75.8,76.0,30.03,SW,231,0.0,-999.0,100,-99.99,,,0.00,weatherlink.com 1.10,2013-06-22 03:01:00,
2013-06-21 23:16:00,75.6,76.0,30.03,SW,231,0.0,-999.0,100,-99.99,,,0.00,weatherlink.com 1.10,2013-06-22 03:16:00,
2013-06-21 23:31:00,75.3,75.0,30.03,SW,231,0.0,-999.0,100,-99.99,,,0.00,weatherlink.com 1.10,2013-06-22 03:31:00,
2013-06-21 23:46:00,75.1,75.0,30.03,SW,231,0.0,-999.0,100,-99.99,,,0.00,weatherlink.com 1.10,2013-06-22 03:46:00,